Latest Weather Observations for Warruwi

IDD60801

Issued at 9:01 am CST Saturday 25 February 2017 (issued every 30 minutes, with the page automatically refreshed every 10 minutes)

About weather observations | Map of weather stations | Latest weather observations for NT | Other Formats
Station Details ID: 014401 Name: WARRUWI AIRPORT Lat: -11.65 Lon: 133.38 Height: 19.2 m
Data from the previous 72 hours. | See also: Recent months at Warruwi
Date/Time
CST
Temp
°C
App
Temp
°C
Dew
Point
°C
Rel
Hum
%
Delta-T
°C
Wind Press
QNH
hPa
Press
MSL
hPa
Rain since
9am
mm
Dir  Spd
km/h
Gust
km/h
Spd
kts
Gust
kts
25/09:00am - - - - - SW 4 6 2 3 1012.1 1011.9 0.4
25/08:30am - - - - - CALM 0 0 0 0 1011.7 1011.5 0.4
25/08:00am - - - - - SSW 2 6 1 3 1011.3 1011.1 0.4
25/07:30am - - - - - SW 2 2 1 1 1011.0 1010.8 0.4
25/07:00am - - - - - CALM 0 0 0 0 1010.8 1010.6 0.4
25/06:30am - - - - - CALM 0 0 0 0 1010.6 1010.4 0.4
25/06:00am - - - - - CALM 0 0 0 0 1010.4 1010.2 0.4
25/05:30am - - - - - CALM 0 0 0 0 1010.2 1010.0 0.4
25/05:00am - - - - - CALM 0 0 0 0 1009.9 1009.7 0.4
25/04:30am - - - - - CALM 0 0 0 0 1009.7 1009.5 0.4
25/04:00am - - - - - CALM 0 0 0 0 1009.8 1009.6 0.4
25/03:30am - - - - - CALM 0 0 0 0 1009.8 1009.6 0.4
25/03:00am - - - - - CALM 0 0 0 0 1010.0 1009.8 0.4
25/02:30am - - - - - CALM 0 0 0 0 1010.4 1010.2 0.4
25/02:00am - - - - - CALM 0 0 0 0 1010.9 1010.7 0.4
25/01:30am - - - - - CALM 0 0 0 0 1011.0 1010.8 0.4
25/01:00am - - - - - CALM 0 0 0 0 1011.2 1011.0 0.4
25/12:30am - - - - - CALM 0 0 0 0 1011.3 1011.1 0.4
25/12:00am - - - - - CALM 0 0 0 0 1011.5 1011.3 0.4
 
Date/Time
CST
Temp
°C
App
Temp
°C
Dew
Point
°C
Rel
Hum
%
Delta-T
°C
Wind Press
QNH
hPa
Press
MSL
hPa
Rain since
9am
mm
Dir  Spd
km/h
Gust
km/h
Spd
kts
Gust
kts
24/11:30pm - - - - - CALM 0 2 0 1 1011.3 1011.1 0.4
24/11:00pm - - - - - CALM 0 0 0 0 1011.3 1011.1 0.4
24/10:30pm - - - - - CALM 0 0 0 0 1010.9 1010.7 0.4
24/10:00pm - - - - - CALM 0 0 0 0 1010.8 1010.6 0.4
24/09:30pm - - - - - CALM 0 0 0 0 1010.7 1010.5 0.4
24/09:00pm - - - - - CALM 0 0 0 0 1010.6 1010.4 0.4
24/08:30pm - - - - - NE 2 4 1 2 1010.5 1010.3 0.4
24/08:00pm - - - - - CALM 0 2 0 1 1010.4 1010.2 0.4
24/07:30pm - - - - - CALM 0 0 0 0 1010.1 1009.9 0.4
24/07:00pm - - - - - N 2 6 1 3 1009.7 1009.5 0.4
24/06:30pm - - - - - NNW 4 6 2 3 1009.3 1009.1 0.4
24/06:00pm - - - - - N 6 9 3 5 1009.3 1009.1 0.4
24/05:30pm - - - - - NNE 6 7 3 4 1009.2 1009.0 0.4
24/05:00pm - - - - - NE 7 11 4 6 1009.3 1009.1 0.4
24/04:30pm - - - - - NNE 7 13 4 7 1009.3 1009.1 0.4
24/04:00pm - - - - - NE 9 13 5 7 1009.4 1009.2 0.4
24/03:30pm - - - - - NNW 9 15 5 8 1009.6 1009.4 0.4
24/03:00pm - - - - - N 11 17 6 9 1009.4 1009.2 0.4
24/02:30pm - - - - - N 11 17 6 9 1009.7 1009.5 0.4
24/02:00pm - - - - - N 7 15 4 8 1010.1 1009.9 0.4
24/01:30pm - - - - - ENE 7 11 4 6 1010.4 1010.2 0.2
24/01:00pm - - - - - ESE 7 9 4 5 1011.0 1010.8 0.2
24/12:30pm - - - - - NE 4 6 2 3 1011.6 1011.4 0.2
24/12:00pm - - - - - E 6 9 3 5 1011.9 1011.7 0.2
24/11:30am - - - - - ENE 2 9 1 5 1012.1 1011.9 0.0
24/11:00am - - - - - WNW 6 9 3 5 1012.2 1012.0 0.0
24/10:30am - - - - - W 9 13 5 7 1012.4 1012.2 0.0
24/10:00am - - - - - WNW 7 11 4 6 1012.5 1012.3 0.0
24/09:30am - - - - - W 11 15 6 8 1012.5 1012.3 0.0
24/09:00am - - - - - WNW 4 13 2 7 1012.4 1012.2 0.0
24/08:30am - - - - - W 4 6 2 3 1012.5 1012.3 0.0
24/08:00am - - - - - WNW 2 4 1 2 1012.3 1012.1 0.0
24/07:30am - - - - - WSW 9 13 5 7 1012.0 1011.8 0.0
24/07:00am - - - - - NW 4 6 2 3 1011.8 1011.6 0.0
24/06:30am - - - - - WNW 2 2 1 1 1011.4 1011.2 0.0
24/06:00am - - - - - NNW 2 4 1 2 1010.6 1010.4 0.0
24/05:30am - - - - - NNW 4 6 2 3 1010.4 1010.2 0.0
24/05:00am - - - - - WNW 6 7 3 4 1010.3 1010.1 0.0
24/04:30am - - - - - NW 4 9 2 5 1010.0 1009.8 0.0
24/04:00am - - - - - NNW 4 11 2 6 1009.9 1009.7 0.0
24/03:30am - - - - - NW 4 7 2 4 1009.7 1009.5 0.0
24/03:00am - - - - - NNW 4 7 2 4 1009.7 1009.5 0.0
24/02:30am - - - - - NW 6 9 3 5 1010.1 1009.9 0.0
24/02:00am - - - - - NW 4 9 2 5 1010.3 1010.1 0.0
24/01:30am - - - - - N 4 9 2 5 1010.4 1010.2 0.0
24/01:00am - - - - - N 4 9 2 5 1010.6 1010.4 0.0
24/12:30am - - - - - NNW 6 11 3 6 1010.8 1010.6 0.0
24/12:00am - - - - - NNW 6 9 3 5 1010.9 1010.7 0.0
 
Date/Time
CST
Temp
°C
App
Temp
°C
Dew
Point
°C
Rel
Hum
%
Delta-T
°C
Wind Press
QNH
hPa
Press
MSL
hPa
Rain since
9am
mm
Dir  Spd
km/h
Gust
km/h
Spd
kts
Gust
kts
23/11:30pm - - - - - NNW 6 9 3 5 1011.1 1010.9 0.0
23/11:00pm - - - - - NNW 4 9 2 5 1010.9 1010.7 0.0
23/10:30pm - - - - - NNW 4 7 2 4 1010.5 1010.3 0.0
23/10:00pm - - - - - N 4 9 2 5 1010.2 1010.0 0.0
23/09:30pm - - - - - N 4 7 2 4 1009.8 1009.6 0.0
23/09:00pm - - - - - N 4 7 2 4 1009.8 1009.6 0.0
23/08:30pm - - - - - NNE 6 9 3 5 1009.4 1009.2 0.0
23/08:00pm - - - - - N 6 13 3 7 1009.0 1008.8 0.0
23/07:30pm - - - - - NNW 6 9 3 5 1008.6 1008.4 0.0
23/07:00pm - - - - - N 6 9 3 5 1008.3 1008.1 0.0
23/06:30pm - - - - - NNW 7 15 4 8 1008.0 1007.8 0.0
23/06:00pm - - - - - N 7 19 4 10 1007.4 1007.2 0.0
23/05:30pm - - - - - N 9 15 5 8 1007.3 1007.1 0.0
23/05:00pm - - - - - N 11 17 6 9 1007.0 1006.8 0.0
23/04:30pm - - - - - N 13 24 7 13 1007.0 1006.8 0.0
23/04:00pm - - - - - N 11 20 6 11 1007.2 1007.0 0.0
23/03:30pm - - - - - N 13 24 7 13 1007.3 1007.1 0.0
23/03:00pm - - - - - N 11 24 6 13 1007.5 1007.3 0.0
23/02:30pm - - - - - N 13 22 7 12 1007.9 1007.7 0.0
23/02:00pm - - - - - N 11 22 6 12 1008.1 1007.9 0.0
23/01:30pm - - - - - NNW 9 17 5 9 1008.4 1008.2 0.0
23/01:00pm - - - - - N 9 20 5 11 1008.7 1008.5 0.0
23/12:30pm - - - - - NNW 9 17 5 9 1009.2 1009.0 0.0
23/12:00pm - - - - - N 9 15 5 8 1009.5 1009.3 0.0
23/11:30am - - - - - N 9 13 5 7 1009.7 1009.5 0.0
23/11:00am - - - - - NW 7 11 4 6 1010.0 1009.8 0.0
23/10:30am - - - - - WNW 6 9 3 5 1010.3 1010.1 0.0
23/10:00am - - - - - W 9 13 5 7 1010.4 1010.2 0.0
23/09:30am - - - - - WNW 9 11 5 6 1010.5 1010.3 0.0
23/09:00am - - - - - WNW 9 13 5 7 1010.4 1010.2 0.0
23/08:30am - - - - - W 9 13 5 7 1010.3 1010.1 0.0
23/08:00am - - - - - W 11 17 6 9 1010.1 1009.9 0.0
23/07:30am - - - - - W 7 9 4 5 1009.9 1009.7 0.0
23/07:00am - - - - - WSW 7 13 4 7 1009.8 1009.6 0.0
23/06:30am - - - - - WSW 6 7 3 4 1009.6 1009.4 0.0
23/06:00am - - - - - W 9 15 5 8 1009.3 1009.1 0.0
23/05:30am - - - - - W 9 13 5 7 1009.1 1008.9 0.0
23/05:00am - - - - - W 9 15 5 8 1009.0 1008.8 0.0
23/04:30am - - - - - W 11 17 6 9 1008.9 1008.7 0.0
23/04:00am - - - - - W 11 15 6 8 1008.7 1008.5 0.0
23/03:30am - - - - - W 11 15 6 8 1008.5 1008.3 0.0
23/03:00am - - - - - W 11 17 6 9 1008.4 1008.2 0.0
23/02:30am - - - - - W 15 20 8 11 1008.3 1008.1 0.0
23/02:00am - - - - - W 17 22 9 12 1008.6 1008.4 0.0
23/01:30am - - - - - W 17 20 9 11 1008.8 1008.6 0.0
23/01:00am - - - - - WNW 11 15 6 8 1009.3 1009.1 0.0
23/12:30am - - - - - WNW 11 17 6 9 1009.6 1009.4 0.0
23/12:00am - - - - - WNW 9 17 5 9 1010.1 1009.9 0.0
 
Date/Time
CST
Temp
°C
App
Temp
°C
Dew
Point
°C
Rel
Hum
%
Delta-T
°C
Wind Press
QNH
hPa
Press
MSL
hPa
Rain since
9am
mm
Dir  Spd
km/h
Gust
km/h
Spd
kts
Gust
kts
22/11:30pm - - - - - WNW 9 13 5 7 1010.3 1010.1 0.0
22/11:00pm - - - - - WNW 9 17 5 9 1010.2 1010.0 0.0
22/10:30pm - - - - - WNW 9 15 5 8 1010.2 1010.0 0.0
22/10:00pm - - - - - WNW 9 17 5 9 1010.1 1009.9 0.0
22/09:30pm - - - - - NW 7 13 4 7 1010.0 1009.8 0.0
22/09:00pm - - - - - NW 7 15 4 8 1009.6 1009.4 0.0
22/08:30pm - - - - - NW 7 15 4 8 1009.4 1009.2 0.0
22/08:00pm - - - - - NW 7 13 4 7 1009.2 1009.0 0.0
22/07:30pm - - - - - NW 7 19 4 10 1008.9 1008.7 0.0
22/07:00pm - - - - - NNW 9 17 5 9 1008.6 1008.4 0.0
22/06:30pm - - - - - NNW 11 17 6 9 1008.2 1008.0 0.0
22/06:00pm - - - - - NNW 9 20 5 11 1008.1 1007.9 0.0
22/05:30pm - - - - - NNW 11 19 6 10 1007.9 1007.7 0.0
22/05:00pm - - - - - NNW 9 22 5 12 1007.7 1007.5 0.0
22/04:30pm - - - - - NNW 13 20 7 11 1007.7 1007.5 0.0
22/04:00pm - - - - - NNW 11 24 6 13 1007.8 1007.6 0.0
22/03:30pm - - - - - NNW 13 22 7 12 1008.0 1007.8 0.0
22/03:00pm - - - - - N 9 17 5 9 1008.2 1008.0 0.0
22/02:30pm - - - - - N 11 19 6 10 1008.3 1008.1 0.0
22/02:00pm - - - - - N 9 22 5 12 1008.6 1008.4 0.0
22/01:30pm - - - - - NW 7 15 4 8 1009.0 1008.8 0.0
22/01:00pm - - - - - NW 9 17 5 9 1009.5 1009.3 0.0
22/12:30pm - - - - - WNW 13 19 7 10 1010.0 1009.8 0.0
22/12:00pm - - - - - W 11 17 6 9 1010.6 1010.4 0.0
22/11:30am - - - - - WNW 13 17 7 9 1010.9 1010.7 0.0
22/11:00am - - - - - WNW 13 19 7 10 1011.1 1010.9 0.0
22/10:30am - - - - - W 13 19 7 10 1011.4 1011.2 0.0
22/10:00am - - - - - W 13 19 7 10 1011.6 1011.4 0.0
22/09:30am - - - - - WNW 17 20 9 11 1011.7 1011.5 0.0

Other Formats:

Comma delimited format used in spreadsheet applications
http://www.bom.gov.au/fwo/IDD60801/IDD60801.94139.axf

JavaScript Object Notation format (JSON) in row-major order
http://www.bom.gov.au/fwo/IDD60801/IDD60801.94139.json